sensor_id;sensor_type;location;lat;lon;timestamp;temperature;humidity
3408;DHT22;1717;50.240;8.406;2024-03-08T00:00:28;7.00;86.10
3408;DHT22;1717;50.240;8.406;2024-03-08T00:02:57;7.20;86.60
3408;DHT22;1717;50.240;8.406;2024-03-08T00:05:27;7.10;86.60
3408;DHT22;1717;50.240;8.406;2024-03-08T00:07:56;7.10;86.80
3408;DHT22;1717;50.240;8.406;2024-03-08T00:10:23;7.10;86.80
3408;DHT22;1717;50.240;8.406;2024-03-08T00:12:50;7.10;86.70
3408;DHT22;1717;50.240;8.406;2024-03-08T00:15:18;7.10;86.70
3408;DHT22;1717;50.240;8.406;2024-03-08T00:17:46;7.00;86.60
3408;DHT22;1717;50.240;8.406;2024-03-08T00:20:13;7.00;86.90
3408;DHT22;1717;50.240;8.406;2024-03-08T00:22:40;7.00;86.90
3408;DHT22;1717;50.240;8.406;2024-03-08T00:25:08;6.90;87.10
3408;DHT22;1717;50.240;8.406;2024-03-08T00:27:35;6.80;87.20
3408;DHT22;1717;50.240;8.406;2024-03-08T00:30:03;6.80;87.30
3408;DHT22;1717;50.240;8.406;2024-03-08T00:32:30;6.80;87.30
3408;DHT22;1717;50.240;8.406;2024-03-08T00:34:58;6.60;87.60
3408;DHT22;1717;50.240;8.406;2024-03-08T00:37:25;6.60;87.80
3408;DHT22;1717;50.240;8.406;2024-03-08T00:39:52;6.60;88.00
3408;DHT22;1717;50.240;8.406;2024-03-08T00:42:21;6.50;88.30
3408;DHT22;1717;50.240;8.406;2024-03-08T00:44:48;6.40;88.60
3408;DHT22;1717;50.240;8.406;2024-03-08T00:47:16;6.40;88.90
3408;DHT22;1717;50.240;8.406;2024-03-08T00:49:43;6.40;89.00
3408;DHT22;1717;50.240;8.406;2024-03-08T00:52:10;6.40;88.90
3408;DHT22;1717;50.240;8.406;2024-03-08T00:54:37;6.30;88.60
3408;DHT22;1717;50.240;8.406;2024-03-08T00:57:04;6.20;89.10
3408;DHT22;1717;50.240;8.406;2024-03-08T00:59:33;6.10;89.00
3408;DHT22;1717;50.240;8.406;2024-03-08T01:02:00;6.10;90.00
3408;DHT22;1717;50.240;8.406;2024-03-08T01:04:27;6.10;89.60
3408;DHT22;1717;50.240;8.406;2024-03-08T01:06:55;6.20;89.60
3408;DHT22;1717;50.240;8.406;2024-03-08T01:09:22;6.10;89.30
3408;DHT22;1717;50.240;8.406;2024-03-08T01:11:49;6.10;89.60
3408;DHT22;1717;50.240;8.406;2024-03-08T01:14:16;5.90;89.50
3408;DHT22;1717;50.240;8.406;2024-03-08T01:16:45;5.90;89.80
3408;DHT22;1717;50.240;8.406;2024-03-08T01:19:12;5.90;90.00
3408;DHT22;1717;50.240;8.406;2024-03-08T01:21:39;5.80;90.10
3408;DHT22;1717;50.240;8.406;2024-03-08T01:24:06;5.70;90.20
3408;DHT22;1717;50.240;8.406;2024-03-08T01:26:32;5.60;90.30
3408;DHT22;1717;50.240;8.406;2024-03-08T01:29:00;5.60;90.50
3408;DHT22;1717;50.240;8.406;2024-03-08T01:31:28;5.50;90.70
3408;DHT22;1717;50.240;8.406;2024-03-08T01:33:57;5.50;90.60
3408;DHT22;1717;50.240;8.406;2024-03-08T01:36:24;5.50;90.60
3408;DHT22;1717;50.240;8.406;2024-03-08T01:38:51;5.40;90.50
3408;DHT22;1717;50.240;8.406;2024-03-08T01:41:18;5.40;90.70
3408;DHT22;1717;50.240;8.406;2024-03-08T01:43:45;5.30;90.70
3408;DHT22;1717;50.240;8.406;2024-03-08T01:46:15;5.30;90.90
3408;DHT22;1717;50.240;8.406;2024-03-08T01:48:43;5.20;90.90
3408;DHT22;1717;50.240;8.406;2024-03-08T01:51:12;5.20;91.00
3408;DHT22;1717;50.240;8.406;2024-03-08T01:53:40;5.10;91.10
3408;DHT22;1717;50.240;8.406;2024-03-08T01:56:11;5.20;91.20
3408;DHT22;1717;50.240;8.406;2024-03-08T01:58:38;5.20;91.20
3408;DHT22;1717;50.240;8.406;2024-03-08T02:01:07;5.10;91.20
3408;DHT22;1717;50.240;8.406;2024-03-08T02:03:34;5.00;91.30
3408;DHT22;1717;50.240;8.406;2024-03-08T02:06:02;5.00;91.40
3408;DHT22;1717;50.240;8.406;2024-03-08T02:08:32;5.10;91.40
3408;DHT22;1717;50.240;8.406;2024-03-08T02:10:59;5.00;91.30
3408;DHT22;1717;50.240;8.406;2024-03-08T02:13:27;5.00;91.30
3408;DHT22;1717;50.240;8.406;2024-03-08T02:15:56;5.00;91.30
3408;DHT22;1717;50.240;8.406;2024-03-08T02:18:25;4.80;91.50
3408;DHT22;1717;50.240;8.406;2024-03-08T02:20:53;4.80;91.60
3408;DHT22;1717;50.240;8.406;2024-03-08T02:23:21;4.90;91.50
3408;DHT22;1717;50.240;8.406;2024-03-08T02:25:49;4.90;91.50
3408;DHT22;1717;50.240;8.406;2024-03-08T02:28:16;4.90;91.50
3408;DHT22;1717;50.240;8.406;2024-03-08T02:30:44;4.90;91.60
3408;DHT22;1717;50.240;8.406;2024-03-08T02:33:13;4.80;91.70
3408;DHT22;1717;50.240;8.406;2024-03-08T02:35:42;4.80;91.80
3408;DHT22;1717;50.240;8.406;2024-03-08T02:38:12;4.80;91.90
3408;DHT22;1717;50.240;8.406;2024-03-08T02:40:41;4.90;91.80
3408;DHT22;1717;50.240;8.406;2024-03-08T02:43:08;4.80;91.60
3408;DHT22;1717;50.240;8.406;2024-03-08T02:45:35;4.80;91.70
3408;DHT22;1717;50.240;8.406;2024-03-08T02:48:03;4.80;91.80
3408;DHT22;1717;50.240;8.406;2024-03-08T02:50:30;4.80;91.90
3408;DHT22;1717;50.240;8.406;2024-03-08T02:52:56;4.70;91.90
3408;DHT22;1717;50.240;8.406;2024-03-08T02:55:25;4.70;92.00
3408;DHT22;1717;50.240;8.406;2024-03-08T02:57:52;4.70;92.10
3408;DHT22;1717;50.240;8.406;2024-03-08T03:00:20;4.70;92.10
3408;DHT22;1717;50.240;8.406;2024-03-08T03:02:48;4.70;92.20
3408;DHT22;1717;50.240;8.406;2024-03-08T03:05:17;4.60;92.30
3408;DHT22;1717;50.240;8.406;2024-03-08T03:07:45;4.60;92.40
3408;DHT22;1717;50.240;8.406;2024-03-08T03:10:13;4.50;92.60
3408;DHT22;1717;50.240;8.406;2024-03-08T03:12:44;4.60;92.60
3408;DHT22;1717;50.240;8.406;2024-03-08T03:15:11;4.60;92.70
3408;DHT22;1717;50.240;8.406;2024-03-08T03:17:39;4.50;92.60
3408;DHT22;1717;50.240;8.406;2024-03-08T03:20:07;4.50;92.60
3408;DHT22;1717;50.240;8.406;2024-03-08T03:22:38;4.50;92.70
3408;DHT22;1717;50.240;8.406;2024-03-08T03:25:07;4.60;92.80
3408;DHT22;1717;50.240;8.406;2024-03-08T03:27:35;4.50;92.80
3408;DHT22;1717;50.240;8.406;2024-03-08T03:30:04;4.50;92.80
3408;DHT22;1717;50.240;8.406;2024-03-08T03:32:58;4.50;92.90
3408;DHT22;1717;50.240;8.406;2024-03-08T03:35:26;4.60;92.90
3408;DHT22;1717;50.240;8.406;2024-03-08T03:37:53;4.60;92.90
3408;DHT22;1717;50.240;8.406;2024-03-08T03:40:28;4.60;92.80
3408;DHT22;1717;50.240;8.406;2024-03-08T03:42:55;4.60;92.80
3408;DHT22;1717;50.240;8.406;2024-03-08T03:45:22;4.50;93.20
3408;DHT22;1717;50.240;8.406;2024-03-08T03:47:49;4.50;93.20
3408;DHT22;1717;50.240;8.406;2024-03-08T03:50:17;4.50;93.20
3408;DHT22;1717;50.240;8.406;2024-03-08T03:52:44;4.50;93.30
3408;DHT22;1717;50.240;8.406;2024-03-08T03:55:12;4.50;93.30
3408;DHT22;1717;50.240;8.406;2024-03-08T03:57:39;4.50;93.80
3408;DHT22;1717;50.240;8.406;2024-03-08T04:00:07;4.60;93.50
3408;DHT22;1717;50.240;8.406;2024-03-08T04:02:36;4.40;93.60
3408;DHT22;1717;50.240;8.406;2024-03-08T04:05:04;4.40;93.70
3408;DHT22;1717;50.240;8.406;2024-03-08T04:07:32;4.50;93.80
3408;DHT22;1717;50.240;8.406;2024-03-08T04:10:00;4.50;93.80
3408;DHT22;1717;50.240;8.406;2024-03-08T04:12:26;4.50;93.70
3408;DHT22;1717;50.240;8.406;2024-03-08T04:14:54;4.30;94.10
3408;DHT22;1717;50.240;8.406;2024-03-08T04:17:22;4.40;94.00
3408;DHT22;1717;50.240;8.406;2024-03-08T04:19:49;4.50;94.10
3408;DHT22;1717;50.240;8.406;2024-03-08T04:22:16;4.40;94.00
3408;DHT22;1717;50.240;8.406;2024-03-08T04:24:44;4.40;94.10
3408;DHT22;1717;50.240;8.406;2024-03-08T04:27:11;4.40;94.00
3408;DHT22;1717;50.240;8.406;2024-03-08T04:29:38;4.40;94.00
3408;DHT22;1717;50.240;8.406;2024-03-08T04:32:06;4.40;93.90
3408;DHT22;1717;50.240;8.406;2024-03-08T04:34:34;4.40;93.80
3408;DHT22;1717;50.240;8.406;2024-03-08T04:37:01;4.40;94.00
3408;DHT22;1717;50.240;8.406;2024-03-08T04:39:30;4.40;93.90
3408;DHT22;1717;50.240;8.406;2024-03-08T04:42:00;4.40;93.90
3408;DHT22;1717;50.240;8.406;2024-03-08T04:44:28;4.40;94.10
3408;DHT22;1717;50.240;8.406;2024-03-08T04:46:55;4.40;94.20
3408;DHT22;1717;50.240;8.406;2024-03-08T04:49:22;4.30;94.10
3408;DHT22;1717;50.240;8.406;2024-03-08T04:51:49;4.40;94.20
3408;DHT22;1717;50.240;8.406;2024-03-08T04:54:16;4.30;94.20
3408;DHT22;1717;50.240;8.406;2024-03-08T04:56:43;4.40;94.30
3408;DHT22;1717;50.240;8.406;2024-03-08T04:59:11;4.40;94.30
3408;DHT22;1717;50.240;8.406;2024-03-08T05:01:39;4.40;94.20
3408;DHT22;1717;50.240;8.406;2024-03-08T05:04:06;4.40;94.30
3408;DHT22;1717;50.240;8.406;2024-03-08T05:06:32;4.20;94.40
3408;DHT22;1717;50.240;8.406;2024-03-08T05:08:59;4.10;94.70
3408;DHT22;1717;50.240;8.406;2024-03-08T05:11:26;4.20;94.80
3408;DHT22;1717;50.240;8.406;2024-03-08T05:13:53;4.20;94.80
3408;DHT22;1717;50.240;8.406;2024-03-08T05:16:22;4.20;94.80
3408;DHT22;1717;50.240;8.406;2024-03-08T05:18:50;4.20;94.90
3408;DHT22;1717;50.240;8.406;2024-03-08T05:21:16;4.20;95.10
3408;DHT22;1717;50.240;8.406;2024-03-08T05:23:45;4.20;95.00
3408;DHT22;1717;50.240;8.406;2024-03-08T05:26:13;4.30;94.90
3408;DHT22;1717;50.240;8.406;2024-03-08T05:28:40;4.30;94.90
3408;DHT22;1717;50.240;8.406;2024-03-08T05:31:07;4.30;95.00
3408;DHT22;1717;50.240;8.406;2024-03-08T05:33:35;4.30;94.90
3408;DHT22;1717;50.240;8.406;2024-03-08T05:36:02;4.40;94.90
3408;DHT22;1717;50.240;8.406;2024-03-08T05:38:31;4.40;94.80
3408;DHT22;1717;50.240;8.406;2024-03-08T05:40:58;4.30;94.90
3408;DHT22;1717;50.240;8.406;2024-03-08T05:43:25;4.30;95.00
3408;DHT22;1717;50.240;8.406;2024-03-08T05:45:52;4.30;95.10
3408;DHT22;1717;50.240;8.406;2024-03-08T05:48:19;4.20;95.10
3408;DHT22;1717;50.240;8.406;2024-03-08T05:50:47;4.30;95.20
3408;DHT22;1717;50.240;8.406;2024-03-08T05:53:14;4.30;95.00
3408;DHT22;1717;50.240;8.406;2024-03-08T05:55:41;4.20;95.30
3408;DHT22;1717;50.240;8.406;2024-03-08T05:58:07;4.20;95.30
3408;DHT22;1717;50.240;8.406;2024-03-08T06:00:36;4.20;95.50
3408;DHT22;1717;50.240;8.406;2024-03-08T06:03:03;4.20;95.40
3408;DHT22;1717;50.240;8.406;2024-03-08T06:05:30;4.20;95.40
3408;DHT22;1717;50.240;8.406;2024-03-08T06:07:59;4.20;95.60
3408;DHT22;1717;50.240;8.406;2024-03-08T06:10:26;4.20;95.60
3408;DHT22;1717;50.240;8.406;2024-03-08T06:12:53;4.20;95.60
3408;DHT22;1717;50.240;8.406;2024-03-08T06:15:20;4.20;95.60
3408;DHT22;1717;50.240;8.406;2024-03-08T06:17:47;4.20;95.60
3408;DHT22;1717;50.240;8.406;2024-03-08T06:20:14;4.20;95.70
3408;DHT22;1717;50.240;8.406;2024-03-08T06:22:41;4.20;95.60
3408;DHT22;1717;50.240;8.406;2024-03-08T06:25:09;4.30;95.60
3408;DHT22;1717;50.240;8.406;2024-03-08T06:27:39;4.30;95.50
3408;DHT22;1717;50.240;8.406;2024-03-08T06:30:08;4.30;95.50
3408;DHT22;1717;50.240;8.406;2024-03-08T06:32:36;4.20;95.60
3408;DHT22;1717;50.240;8.406;2024-03-08T06:35:03;4.10;95.60
3408;DHT22;1717;50.240;8.406;2024-03-08T06:37:31;4.20;95.80
3408;DHT22;1717;50.240;8.406;2024-03-08T06:39:58;4.30;95.70
3408;DHT22;1717;50.240;8.406;2024-03-08T06:42:27;4.30;95.70
3408;DHT22;1717;50.240;8.406;2024-03-08T06:44:54;4.30;95.70
3408;DHT22;1717;50.240;8.406;2024-03-08T06:47:28;4.30;95.70
3408;DHT22;1717;50.240;8.406;2024-03-08T06:49:55;4.30;95.80
3408;DHT22;1717;50.240;8.406;2024-03-08T06:52:22;4.20;95.90
3408;DHT22;1717;50.240;8.406;2024-03-08T06:54:49;4.30;95.90
3408;DHT22;1717;50.240;8.406;2024-03-08T06:57:18;4.30;95.90
3408;DHT22;1717;50.240;8.406;2024-03-08T06:59:48;4.20;95.80
3408;DHT22;1717;50.240;8.406;2024-03-08T07:02:17;4.10;95.90
3408;DHT22;1717;50.240;8.406;2024-03-08T07:04:44;4.10;96.00
3408;DHT22;1717;50.240;8.406;2024-03-08T07:07:11;4.20;96.10
3408;DHT22;1717;50.240;8.406;2024-03-08T07:09:38;4.20;96.20
3408;DHT22;1717;50.240;8.406;2024-03-08T07:12:05;4.20;96.10
3408;DHT22;1717;50.240;8.406;2024-03-08T07:14:32;4.20;96.10
3408;DHT22;1717;50.240;8.406;2024-03-08T07:17:00;4.20;96.30
3408;DHT22;1717;50.240;8.406;2024-03-08T07:19:27;4.30;96.30
3408;DHT22;1717;50.240;8.406;2024-03-08T07:21:54;4.20;96.10
3408;DHT22;1717;50.240;8.406;2024-03-08T07:24:21;4.20;96.00
3408;DHT22;1717;50.240;8.406;2024-03-08T07:27:05;4.20;96.40
3408;DHT22;1717;50.240;8.406;2024-03-08T07:29:32;4.30;96.10
3408;DHT22;1717;50.240;8.406;2024-03-08T07:32:01;4.30;96.00
3408;DHT22;1717;50.240;8.406;2024-03-08T07:34:40;4.20;96.10
3408;DHT22;1717;50.240;8.406;2024-03-08T07:37:06;4.20;96.30
3408;DHT22;1717;50.240;8.406;2024-03-08T07:39:37;4.20;96.40
3408;DHT22;1717;50.240;8.406;2024-03-08T07:42:04;4.30;96.40
3408;DHT22;1717;50.240;8.406;2024-03-08T07:44:31;4.20;96.30
3408;DHT22;1717;50.240;8.406;2024-03-08T07:46:59;4.30;96.50
3408;DHT22;1717;50.240;8.406;2024-03-08T07:49:27;4.30;96.60
3408;DHT22;1717;50.240;8.406;2024-03-08T07:51:54;4.30;96.60
3408;DHT22;1717;50.240;8.406;2024-03-08T07:54:21;4.50;96.60
3408;DHT22;1717;50.240;8.406;2024-03-08T07:56:48;4.50;96.40
3408;DHT22;1717;50.240;8.406;2024-03-08T07:59:16;4.60;96.20
3408;DHT22;1717;50.240;8.406;2024-03-08T08:01:43;4.70;96.20
3408;DHT22;1717;50.240;8.406;2024-03-08T08:04:12;4.90;96.00
3408;DHT22;1717;50.240;8.406;2024-03-08T08:06:41;5.00;95.60
3408;DHT22;1717;50.240;8.406;2024-03-08T08:09:08;5.10;95.60
3408;DHT22;1717;50.240;8.406;2024-03-08T08:11:39;5.20;95.50
3408;DHT22;1717;50.240;8.406;2024-03-08T08:14:09;5.30;95.30
3408;DHT22;1717;50.240;8.406;2024-03-08T08:16:36;5.40;95.10
3408;DHT22;1717;50.240;8.406;2024-03-08T08:19:03;5.50;94.90
3408;DHT22;1717;50.240;8.406;2024-03-08T08:21:33;5.60;94.70
3408;DHT22;1717;50.240;8.406;2024-03-08T08:24:01;5.70;94.60
3408;DHT22;1717;50.240;8.406;2024-03-08T08:26:28;5.80;94.40
3408;DHT22;1717;50.240;8.406;2024-03-08T08:28:56;5.90;94.30
3408;DHT22;1717;50.240;8.406;2024-03-08T08:31:23;5.90;94.10
3408;DHT22;1717;50.240;8.406;2024-03-08T08:33:50;6.00;93.90
3408;DHT22;1717;50.240;8.406;2024-03-08T08:36:21;6.10;93.90
3408;DHT22;1717;50.240;8.406;2024-03-08T08:38:48;6.20;93.70
3408;DHT22;1717;50.240;8.406;2024-03-08T08:41:17;6.20;93.50
3408;DHT22;1717;50.240;8.406;2024-03-08T08:43:44;6.30;93.40
3408;DHT22;1717;50.240;8.406;2024-03-08T08:46:11;6.30;93.30
3408;DHT22;1717;50.240;8.406;2024-03-08T08:48:39;6.40;93.20
3408;DHT22;1717;50.240;8.406;2024-03-08T08:51:09;6.40;93.00
3408;DHT22;1717;50.240;8.406;2024-03-08T08:53:38;6.50;93.00
3408;DHT22;1717;50.240;8.406;2024-03-08T08:56:06;6.50;92.90
3408;DHT22;1717;50.240;8.406;2024-03-08T08:58:35;6.60;92.80
3408;DHT22;1717;50.240;8.406;2024-03-08T09:01:02;6.60;92.70
3408;DHT22;1717;50.240;8.406;2024-03-08T09:03:30;6.60;92.70
3408;DHT22;1717;50.240;8.406;2024-03-08T09:06:00;6.70;92.70
3408;DHT22;1717;50.240;8.406;2024-03-08T09:08:28;6.70;92.60
3408;DHT22;1717;50.240;8.406;2024-03-08T09:10:55;6.70;92.50
3408;DHT22;1717;50.240;8.406;2024-03-08T09:13:22;6.80;92.50
3408;DHT22;1717;50.240;8.406;2024-03-08T09:15:51;6.80;92.40
3408;DHT22;1717;50.240;8.406;2024-03-08T09:18:18;6.80;92.20
3408;DHT22;1717;50.240;8.406;2024-03-08T09:20:45;6.90;92.30
3408;DHT22;1717;50.240;8.406;2024-03-08T09:23:12;6.80;92.20
3408;DHT22;1717;50.240;8.406;2024-03-08T09:25:41;6.90;92.30
3408;DHT22;1717;50.240;8.406;2024-03-08T09:28:08;6.90;92.30
3408;DHT22;1717;50.240;8.406;2024-03-08T09:30:37;6.90;92.20
3408;DHT22;1717;50.240;8.406;2024-03-08T09:33:06;7.00;92.30
3408;DHT22;1717;50.240;8.406;2024-03-08T09:35:33;6.90;92.20
3408;DHT22;1717;50.240;8.406;2024-03-08T09:38:01;6.90;92.30
3408;DHT22;1717;50.240;8.406;2024-03-08T09:40:30;7.00;92.40
3408;DHT22;1717;50.240;8.406;2024-03-08T09:42:58;7.00;92.40
3408;DHT22;1717;50.240;8.406;2024-03-08T09:45:25;7.00;92.30
3408;DHT22;1717;50.240;8.406;2024-03-08T09:47:52;7.00;92.30
3408;DHT22;1717;50.240;8.406;2024-03-08T09:50:21;7.00;92.20
3408;DHT22;1717;50.240;8.406;2024-03-08T09:52:49;7.10;92.20
3408;DHT22;1717;50.240;8.406;2024-03-08T09:55:16;7.10;92.60
3408;DHT22;1717;50.240;8.406;2024-03-08T09:57:48;7.00;92.30
3408;DHT22;1717;50.240;8.406;2024-03-08T10:00:29;7.10;92.00
3408;DHT22;1717;50.240;8.406;2024-03-08T10:03:00;7.10;92.10
3408;DHT22;1717;50.240;8.406;2024-03-08T10:05:30;7.20;92.20
3408;DHT22;1717;50.240;8.406;2024-03-08T10:07:59;7.20;92.20
3408;DHT22;1717;50.240;8.406;2024-03-08T10:10:26;7.20;92.10
3408;DHT22;1717;50.240;8.406;2024-03-08T10:12:53;7.20;92.10
3408;DHT22;1717;50.240;8.406;2024-03-08T10:15:21;7.30;92.00
3408;DHT22;1717;50.240;8.406;2024-03-08T10:17:49;7.30;92.10
3408;DHT22;1717;50.240;8.406;2024-03-08T10:20:17;7.30;92.10
3408;DHT22;1717;50.240;8.406;2024-03-08T10:22:47;7.30;92.10
3408;DHT22;1717;50.240;8.406;2024-03-08T10:25:15;7.30;91.90
3408;DHT22;1717;50.240;8.406;2024-03-08T10:27:43;7.40;92.00
3408;DHT22;1717;50.240;8.406;2024-03-08T10:30:12;7.40;91.90
3408;DHT22;1717;50.240;8.406;2024-03-08T10:32:41;7.40;92.20
3408;DHT22;1717;50.240;8.406;2024-03-08T10:35:08;7.40;91.70
3408;DHT22;1717;50.240;8.406;2024-03-08T10:37:46;7.40;91.70
3408;DHT22;1717;50.240;8.406;2024-03-08T10:40:16;7.40;91.60
3408;DHT22;1717;50.240;8.406;2024-03-08T10:42:51;7.50;91.80
3408;DHT22;1717;50.240;8.406;2024-03-08T10:45:29;7.50;91.80
3408;DHT22;1717;50.240;8.406;2024-03-08T10:48:08;7.50;91.70
3408;DHT22;1717;50.240;8.406;2024-03-08T10:50:37;7.50;91.80
3408;DHT22;1717;50.240;8.406;2024-03-08T10:53:06;7.50;91.80
3408;DHT22;1717;50.240;8.406;2024-03-08T10:55:33;7.50;91.70
3408;DHT22;1717;50.240;8.406;2024-03-08T10:58:03;7.60;91.80
3408;DHT22;1717;50.240;8.406;2024-03-08T11:00:31;7.60;91.90
3408;DHT22;1717;50.240;8.406;2024-03-08T11:02:58;7.60;91.80
3408;DHT22;1717;50.240;8.406;2024-03-08T11:05:32;7.60;91.60
3408;DHT22;1717;50.240;8.406;2024-03-08T11:08:08;7.70;91.70
3408;DHT22;1717;50.240;8.406;2024-03-08T11:10:47;7.70;91.70
3408;DHT22;1717;50.240;8.406;2024-03-08T11:13:34;7.70;91.50
3408;DHT22;1717;50.240;8.406;2024-03-08T11:16:01;7.70;91.30
3408;DHT22;1717;50.240;8.406;2024-03-08T11:18:32;7.80;91.50
3408;DHT22;1717;50.240;8.406;2024-03-08T11:21:02;7.80;91.50
3408;DHT22;1717;50.240;8.406;2024-03-08T11:23:34;7.80;91.10
3408;DHT22;1717;50.240;8.406;2024-03-08T11:26:02;7.90;91.30
3408;DHT22;1717;50.240;8.406;2024-03-08T11:28:33;7.90;90.90
3408;DHT22;1717;50.240;8.406;2024-03-08T11:31:24;7.90;91.10
3408;DHT22;1717;50.240;8.406;2024-03-08T11:33:52;7.90;90.70
3408;DHT22;1717;50.240;8.406;2024-03-08T11:36:21;8.00;90.80
3408;DHT22;1717;50.240;8.406;2024-03-08T11:38:50;7.90;90.60
3408;DHT22;1717;50.240;8.406;2024-03-08T11:41:20;8.00;90.90
3408;DHT22;1717;50.240;8.406;2024-03-08T11:43:47;8.10;90.90
3408;DHT22;1717;50.240;8.406;2024-03-08T11:46:15;8.10;91.10
3408;DHT22;1717;50.240;8.406;2024-03-08T11:48:44;8.20;91.10
3408;DHT22;1717;50.240;8.406;2024-03-08T11:51:11;8.30;91.10
3408;DHT22;1717;50.240;8.406;2024-03-08T11:53:39;8.20;90.90
3408;DHT22;1717;50.240;8.406;2024-03-08T11:56:08;8.30;90.90
3408;DHT22;1717;50.240;8.406;2024-03-08T11:58:37;8.30;90.90
3408;DHT22;1717;50.240;8.406;2024-03-08T12:01:04;8.40;91.00
3408;DHT22;1717;50.240;8.406;2024-03-08T12:03:33;8.40;90.80
3408;DHT22;1717;50.240;8.406;2024-03-08T12:06:00;8.40;90.60
3408;DHT22;1717;50.240;8.406;2024-03-08T12:08:30;8.50;90.60
3408;DHT22;1717;50.240;8.406;2024-03-08T12:10:58;8.50;90.50
3408;DHT22;1717;50.240;8.406;2024-03-08T12:13:28;8.50;90.20
3408;DHT22;1717;50.240;8.406;2024-03-08T12:15:57;8.60;90.30
3408;DHT22;1717;50.240;8.406;2024-03-08T12:18:25;8.60;89.90
3408;DHT22;1717;50.240;8.406;2024-03-08T12:21:04;8.70;90.00
3408;DHT22;1717;50.240;8.406;2024-03-08T12:23:32;8.70;90.10
3408;DHT22;1717;50.240;8.406;2024-03-08T12:26:09;8.80;90.20
3408;DHT22;1717;50.240;8.406;2024-03-08T12:28:40;8.90;90.20
3408;DHT22;1717;50.240;8.406;2024-03-08T12:31:08;8.90;90.00
3408;DHT22;1717;50.240;8.406;2024-03-08T12:33:37;9.00;89.70
3408;DHT22;1717;50.240;8.406;2024-03-08T12:36:04;9.10;90.20
3408;DHT22;1717;50.240;8.406;2024-03-08T12:38:33;9.10;88.80
3408;DHT22;1717;50.240;8.406;2024-03-08T12:41:01;9.20;88.30
3408;DHT22;1717;50.240;8.406;2024-03-08T12:43:28;9.20;88.10
3408;DHT22;1717;50.240;8.406;2024-03-08T12:45:58;9.30;88.30
3408;DHT22;1717;50.240;8.406;2024-03-08T12:48:25;9.40;87.50
3408;DHT22;1717;50.240;8.406;2024-03-08T12:50:52;9.50;87.60
3408;DHT22;1717;50.240;8.406;2024-03-08T12:53:20;9.50;87.40
3408;DHT22;1717;50.240;8.406;2024-03-08T12:55:48;9.60;86.90
3408;DHT22;1717;50.240;8.406;2024-03-08T12:58:15;9.70;86.40
3408;DHT22;1717;50.240;8.406;2024-03-08T13:00:43;9.70;86.20
3408;DHT22;1717;50.240;8.406;2024-03-08T13:03:11;9.80;86.50
3408;DHT22;1717;50.240;8.406;2024-03-08T13:05:38;9.90;86.40
3408;DHT22;1717;50.240;8.406;2024-03-08T13:08:08;10.00;84.90
3408;DHT22;1717;50.240;8.406;2024-03-08T13:10:39;10.10;84.60
3408;DHT22;1717;50.240;8.406;2024-03-08T13:13:06;10.10;84.40
3408;DHT22;1717;50.240;8.406;2024-03-08T13:15:35;10.20;84.50
3408;DHT22;1717;50.240;8.406;2024-03-08T13:18:02;10.30;84.20
3408;DHT22;1717;50.240;8.406;2024-03-08T13:20:32;10.40;84.10
3408;DHT22;1717;50.240;8.406;2024-03-08T13:23:02;10.50;83.40
3408;DHT22;1717;50.240;8.406;2024-03-08T13:25:30;10.50;83.50
3408;DHT22;1717;50.240;8.406;2024-03-08T13:27:57;10.60;83.20
3408;DHT22;1717;50.240;8.406;2024-03-08T13:30:26;10.60;82.10
3408;DHT22;1717;50.240;8.406;2024-03-08T13:32:53;10.60;81.60
3408;DHT22;1717;50.240;8.406;2024-03-08T13:35:20;10.70;80.90
3408;DHT22;1717;50.240;8.406;2024-03-08T13:37:51;10.80;81.80
3408;DHT22;1717;50.240;8.406;2024-03-08T13:40:18;10.90;82.00
3408;DHT22;1717;50.240;8.406;2024-03-08T13:42:45;11.00;81.80
3408;DHT22;1717;50.240;8.406;2024-03-08T13:45:12;11.10;80.80
3408;DHT22;1717;50.240;8.406;2024-03-08T13:47:43;11.10;79.70
3408;DHT22;1717;50.240;8.406;2024-03-08T13:50:12;11.20;80.50
3408;DHT22;1717;50.240;8.406;2024-03-08T13:52:41;11.30;80.30
3408;DHT22;1717;50.240;8.406;2024-03-08T13:55:10;11.30;80.20
3408;DHT22;1717;50.240;8.406;2024-03-08T13:57:38;11.30;78.90
3408;DHT22;1717;50.240;8.406;2024-03-08T14:00:06;11.40;79.70
3408;DHT22;1717;50.240;8.406;2024-03-08T14:02:33;11.50;80.50
3408;DHT22;1717;50.240;8.406;2024-03-08T14:05:00;11.50;79.40
3408;DHT22;1717;50.240;8.406;2024-03-08T14:07:28;11.60;78.40
3408;DHT22;1717;50.240;8.406;2024-03-08T14:09:55;11.60;78.90
3408;DHT22;1717;50.240;8.406;2024-03-08T14:12:23;11.70;79.30
3408;DHT22;1717;50.240;8.406;2024-03-08T14:14:51;11.80;79.40
3408;DHT22;1717;50.240;8.406;2024-03-08T14:17:18;11.90;79.50
3408;DHT22;1717;50.240;8.406;2024-03-08T14:19:45;11.90;79.30
3408;DHT22;1717;50.240;8.406;2024-03-08T14:22:12;12.00;79.10
3408;DHT22;1717;50.240;8.406;2024-03-08T14:24:40;12.10;79.30
3408;DHT22;1717;50.240;8.406;2024-03-08T14:27:07;12.10;79.00
3408;DHT22;1717;50.240;8.406;2024-03-08T14:29:36;12.20;78.30
3408;DHT22;1717;50.240;8.406;2024-03-08T14:32:04;12.20;78.00
3408;DHT22;1717;50.240;8.406;2024-03-08T14:34:31;12.30;78.50
3408;DHT22;1717;50.240;8.406;2024-03-08T14:37:00;12.30;78.50
3408;DHT22;1717;50.240;8.406;2024-03-08T14:39:27;12.40;77.50
3408;DHT22;1717;50.240;8.406;2024-03-08T14:41:54;12.40;78.00
3408;DHT22;1717;50.240;8.406;2024-03-08T14:44:23;12.50;77.70
3408;DHT22;1717;50.240;8.406;2024-03-08T14:46:52;12.60;77.50
3408;DHT22;1717;50.240;8.406;2024-03-08T14:49:19;12.60;77.00
3408;DHT22;1717;50.240;8.406;2024-03-08T14:51:47;12.60;76.80
3408;DHT22;1717;50.240;8.406;2024-03-08T14:54:13;12.70;76.60
3408;DHT22;1717;50.240;8.406;2024-03-08T14:56:40;12.70;76.60
3408;DHT22;1717;50.240;8.406;2024-03-08T14:59:08;12.80;75.90
3408;DHT22;1717;50.240;8.406;2024-03-08T15:01:35;12.90;76.40
3408;DHT22;1717;50.240;8.406;2024-03-08T15:04:04;12.90;77.00
3408;DHT22;1717;50.240;8.406;2024-03-08T15:06:34;12.90;76.70
3408;DHT22;1717;50.240;8.406;2024-03-08T15:09:02;12.90;76.60
3408;DHT22;1717;50.240;8.406;2024-03-08T15:11:36;13.00;76.20
3408;DHT22;1717;50.240;8.406;2024-03-08T15:14:04;13.00;76.20
3408;DHT22;1717;50.240;8.406;2024-03-08T15:16:35;13.00;76.30
3408;DHT22;1717;50.240;8.406;2024-03-08T15:19:04;13.10;75.40
3408;DHT22;1717;50.240;8.406;2024-03-08T15:21:31;13.10;74.70
3408;DHT22;1717;50.240;8.406;2024-03-08T15:23:59;13.10;74.70
3408;DHT22;1717;50.240;8.406;2024-03-08T15:26:28;13.10;75.40
3408;DHT22;1717;50.240;8.406;2024-03-08T15:28:55;13.20;75.30
3408;DHT22;1717;50.240;8.406;2024-03-08T15:31:22;13.20;75.40
3408;DHT22;1717;50.240;8.406;2024-03-08T15:33:50;13.20;75.30
3408;DHT22;1717;50.240;8.406;2024-03-08T15:36:27;13.30;75.10
3408;DHT22;1717;50.240;8.406;2024-03-08T15:38:56;13.30;74.60
3408;DHT22;1717;50.240;8.406;2024-03-08T15:41:23;13.30;73.60
3408;DHT22;1717;50.240;8.406;2024-03-08T15:43:52;13.30;74.20
3408;DHT22;1717;50.240;8.406;2024-03-08T15:46:20;13.40;73.70
3408;DHT22;1717;50.240;8.406;2024-03-08T15:48:48;13.30;72.10
3408;DHT22;1717;50.240;8.406;2024-03-08T15:51:16;13.30;73.50
3408;DHT22;1717;50.240;8.406;2024-03-08T15:53:45;13.40;72.90
3408;DHT22;1717;50.240;8.406;2024-03-08T15:56:18;13.40;73.10
3408;DHT22;1717;50.240;8.406;2024-03-08T15:58:45;13.40;72.50
3408;DHT22;1717;50.240;8.406;2024-03-08T16:01:12;13.50;72.50
3408;DHT22;1717;50.240;8.406;2024-03-08T16:03:41;13.40;72.10
3408;DHT22;1717;50.240;8.406;2024-03-08T16:06:10;13.40;72.40
3408;DHT22;1717;50.240;8.406;2024-03-08T16:08:37;13.50;72.30
3408;DHT22;1717;50.240;8.406;2024-03-08T16:11:06;13.50;72.00
3408;DHT22;1717;50.240;8.406;2024-03-08T16:13:34;13.40;71.60
3408;DHT22;1717;50.240;8.406;2024-03-08T16:16:04;13.40;72.20
3408;DHT22;1717;50.240;8.406;2024-03-08T16:18:31;13.40;72.00
3408;DHT22;1717;50.240;8.406;2024-03-08T16:21:00;13.50;72.70